createdAt,value
2023-10-26T00:00:48.615Z,0.50
2023-10-26T00:01:50.642Z,0.57
2023-10-26T00:02:53.583Z,0.50
2023-10-26T00:03:55.789Z,0.60
2023-10-26T00:04:57.795Z,0.30
2023-10-26T00:05:59.778Z,0.50
2023-10-26T00:07:02.542Z,0.50
2023-10-26T00:08:04.688Z,0.30
2023-10-26T00:09:06.734Z,0.50
2023-10-26T00:10:09.196Z,0.60
2023-10-26T00:11:11.166Z,0.60
2023-10-26T00:12:13.181Z,0.60
2023-10-26T00:13:15.158Z,0.38
2023-10-26T00:14:17.606Z,0.50
2023-10-26T00:16:21.800Z,0.63
2023-10-26T00:17:23.919Z,0.50
2023-10-26T00:18:26.046Z,0.57
2023-10-26T00:19:28.530Z,0.60
2023-10-26T00:20:30.639Z,0.60
2023-10-26T00:21:32.517Z,0.55
2023-10-26T00:22:34.632Z,0.40
2023-10-26T00:23:36.580Z,0.68
2023-10-26T00:24:39.110Z,0.60
2023-10-26T00:25:41.179Z,0.70
2023-10-26T00:26:43.694Z,0.60
2023-10-26T00:28:47.894Z,0.75
2023-10-26T00:29:49.916Z,0.50
2023-10-26T00:30:51.944Z,0.57
2023-10-26T00:31:53.936Z,0.80
2023-10-26T00:32:56.310Z,0.60
2023-10-26T00:35:00.764Z,0.47
2023-10-26T00:36:03.140Z,0.50
2023-10-26T00:38:06.908Z,0.70
2023-10-26T00:39:08.855Z,0.52
2023-10-26T00:40:11.409Z,0.50
2023-10-26T00:41:13.344Z,0.65
2023-10-26T00:42:15.378Z,0.60
2023-10-26T00:43:28.448Z,0.50
2023-10-26T00:44:30.345Z,0.65
2023-10-26T00:45:34.974Z,0.70
2023-10-26T00:46:36.957Z,0.60
2023-10-26T00:47:39.510Z,0.55
2023-10-26T00:48:42.016Z,0.45
2023-10-26T00:49:44.332Z,0.52
2023-10-26T00:50:47.282Z,0.65
2023-10-26T00:52:00.829Z,0.50
2023-10-26T00:53:02.923Z,0.60
2023-10-26T00:54:05.862Z,0.75
2023-10-26T00:55:09.200Z,0.60
2023-10-26T00:56:13.518Z,0.63
2023-10-26T00:57:19.606Z,0.68
2023-10-26T00:58:23.720Z,0.50
2023-10-26T00:59:28.965Z,0.70
2023-10-26T01:00:32.197Z,0.57
2023-10-26T01:01:36.189Z,0.60
2023-10-26T01:02:39.184Z,0.73
2023-10-26T01:03:42.603Z,0.50
2023-10-26T01:04:45.020Z,0.52
2023-10-26T01:05:47.541Z,0.60
2023-10-26T01:06:49.574Z,0.75
2023-10-26T01:07:51.541Z,0.60
2023-10-26T01:08:54.381Z,0.40
2023-10-26T01:09:57.995Z,0.60
2023-10-26T01:11:00.060Z,0.60
2023-10-26T01:12:02.873Z,0.90
2023-10-26T01:13:05.934Z,0.57
2023-10-26T01:14:09.477Z,0.55
2023-10-26T01:15:12.736Z,0.50
2023-10-26T01:16:15.230Z,0.70
2023-10-26T01:17:17.229Z,0.60
2023-10-26T01:18:19.232Z,0.43
2023-10-26T01:19:21.506Z,0.60
2023-10-26T01:20:23.618Z,0.43
2023-10-26T01:21:33.334Z,0.52
2023-10-26T01:22:35.733Z,0.40
2023-10-26T01:24:39.780Z,0.55
2023-10-26T01:25:41.896Z,0.30
2023-10-26T01:26:43.861Z,0.52
2023-10-26T01:27:45.797Z,0.40
2023-10-26T01:28:47.722Z,0.50
2023-10-26T01:29:49.793Z,0.50
2023-10-26T01:30:51.852Z,0.30
2023-10-26T01:31:53.716Z,0.38
2023-10-26T01:32:55.763Z,0.63
2023-10-26T01:33:57.793Z,0.60
2023-10-26T01:35:00.374Z,0.40
2023-10-26T01:36:02.395Z,0.50
2023-10-26T01:37:05.918Z,0.40
2023-10-26T01:38:08.330Z,0.60
2023-10-26T01:40:12.763Z,0.47
2023-10-26T01:41:14.729Z,0.50
2023-10-26T01:42:16.690Z,0.40
2023-10-26T01:43:18.718Z,0.55
2023-10-26T01:44:20.726Z,0.40
2023-10-26T01:45:22.737Z,0.55
2023-10-26T01:46:24.756Z,0.52
2023-10-26T01:47:26.782Z,0.50
2023-10-26T01:48:29.075Z,0.43
2023-10-26T01:49:31.025Z,0.50
2023-10-26T01:50:33.693Z,0.50
2023-10-26T01:51:36.364Z,0.60
2023-10-26T01:52:38.542Z,0.50
2023-10-26T01:53:41.819Z,0.50
2023-10-26T01:54:43.971Z,0.60
2023-10-26T01:55:46.276Z,0.60
2023-10-26T01:57:51.733Z,0.60
2023-10-26T01:58:53.774Z,0.70
2023-10-26T01:59:57.476Z,0.55
2023-10-26T02:00:59.377Z,0.50
2023-10-26T02:02:02.170Z,0.60
2023-10-26T02:03:04.287Z,1.73
2023-10-26T02:04:06.645Z,0.63
2023-10-26T02:05:09.440Z,0.88
2023-10-26T02:06:11.818Z,1.00
2023-10-26T02:07:14.025Z,0.90
2023-10-26T02:08:16.433Z,1.02
2023-10-26T02:10:20.923Z,0.77
2023-10-26T02:11:22.969Z,0.70
2023-10-26T02:12:24.964Z,0.93
2023-10-26T02:13:26.937Z,0.65
2023-10-26T02:14:28.910Z,0.70
2023-10-26T02:15:30.859Z,0.80
2023-10-26T02:16:32.850Z,0.77
2023-10-26T02:17:34.783Z,0.63
2023-10-26T02:18:36.928Z,0.80
2023-10-26T02:19:39.165Z,0.70
2023-10-26T02:20:41.231Z,0.80
2023-10-26T02:21:43.684Z,0.80
2023-10-26T02:23:47.398Z,0.70
2023-10-26T02:24:49.427Z,0.50
2023-10-26T02:25:51.371Z,1.45
2023-10-26T02:26:53.411Z,0.70
2023-10-26T02:27:55.384Z,0.65
2023-10-26T02:28:57.303Z,0.80
2023-10-26T02:29:59.619Z,0.90
2023-10-26T02:32:05.345Z,0.70
2023-10-26T02:33:07.287Z,0.50
2023-10-26T02:34:09.363Z,0.95
2023-10-26T02:35:11.445Z,0.70
2023-10-26T02:36:13.320Z,0.77
2023-10-26T02:37:15.337Z,0.70
2023-10-26T02:39:36.884Z,0.60
2023-10-26T02:40:39.284Z,0.60
2023-10-26T02:42:43.549Z,0.60
2023-10-26T02:43:46.125Z,0.52
2023-10-26T02:44:48.107Z,0.57
2023-10-26T02:45:50.158Z,0.65
2023-10-26T02:46:52.189Z,0.50
2023-10-26T02:47:54.172Z,0.60
2023-10-26T02:48:59.112Z,0.50
2023-10-26T02:50:01.189Z,0.82
2023-10-26T02:51:04.764Z,0.70
2023-10-26T02:52:06.887Z,0.60
2023-10-26T02:53:08.838Z,0.60
2023-10-26T02:54:10.825Z,0.40
2023-10-26T02:55:12.745Z,0.95
2023-10-26T02:56:14.773Z,0.90
2023-10-26T02:57:16.987Z,0.68
2023-10-26T02:58:19.353Z,0.70
2023-10-26T03:00:23.105Z,0.80
2023-10-26T03:01:25.175Z,0.88
2023-10-26T03:02:27.152Z,0.70
2023-10-26T03:03:29.365Z,0.65
2023-10-26T03:04:32.905Z,0.88
2023-10-26T03:05:34.925Z,0.80
2023-10-26T03:06:40.816Z,1.00
2023-10-26T03:07:46.665Z,1.00
2023-10-26T03:08:48.658Z,0.85
2023-10-26T03:09:52.029Z,0.75
2023-10-26T03:10:54.237Z,0.80
2023-10-26T03:11:56.694Z,0.80
2023-10-26T03:14:01.193Z,0.82
2023-10-26T03:15:03.936Z,0.75
2023-10-26T03:16:07.827Z,0.75
2023-10-26T03:17:11.114Z,0.77
2023-10-26T03:18:13.184Z,0.73
2023-10-26T03:19:15.441Z,0.90
2023-10-26T03:20:17.443Z,1.00
2023-10-26T03:21:21.812Z,0.77
2023-10-26T03:22:23.855Z,0.75
2023-10-26T03:23:25.849Z,0.75
2023-10-26T03:24:27.922Z,0.80
2023-10-26T03:25:29.979Z,1.10
2023-10-26T03:26:32.257Z,1.00
2023-10-26T03:27:34.446Z,0.88
2023-10-26T03:28:36.257Z,1.08
2023-10-26T03:29:38.235Z,0.88
2023-10-26T03:30:40.134Z,0.82
2023-10-26T03:31:42.921Z,0.98
2023-10-26T03:32:45.887Z,1.10
2023-10-26T03:33:48.020Z,0.88
2023-10-26T03:34:50.344Z,1.10
2023-10-26T03:35:52.295Z,0.90
2023-10-26T03:36:54.203Z,1.05
2023-10-26T03:37:56.205Z,0.90
2023-10-26T03:38:58.172Z,0.80
2023-10-26T03:40:00.100Z,1.00
2023-10-26T03:41:02.116Z,0.90
2023-10-26T03:42:04.217Z,1.02
2023-10-26T03:43:06.205Z,0.80
2023-10-26T03:44:09.668Z,1.00
2023-10-26T03:45:12.400Z,0.93
2023-10-26T03:46:14.825Z,0.90
2023-10-26T03:48:21.009Z,0.80
2023-10-26T03:49:23.227Z,1.00
2023-10-26T03:50:25.220Z,0.93
2023-10-26T03:51:27.589Z,1.20
2023-10-26T03:53:31.731Z,0.77
2023-10-26T03:54:34.130Z,0.93
2023-10-26T03:55:36.379Z,1.20
2023-10-26T03:56:38.330Z,1.20
2023-10-26T03:57:40.763Z,0.90
2023-10-26T03:58:43.053Z,0.82
2023-10-26T03:59:45.041Z,1.50
2023-10-26T04:00:49.023Z,1.23
2023-10-26T04:01:51.301Z,1.35
2023-10-26T04:03:55.124Z,2.35
2023-10-26T04:04:56.989Z,1.55
2023-10-26T04:05:58.945Z,0.95
2023-10-26T04:07:00.969Z,1.02
2023-10-26T04:08:04.804Z,1.17
2023-10-26T04:09:06.764Z,1.17
2023-10-26T04:10:09.578Z,0.95
2023-10-26T04:11:18.777Z,1.17
2023-10-26T04:12:20.812Z,0.70
2023-10-26T04:13:22.773Z,0.77
2023-10-26T04:14:24.748Z,0.90
2023-10-26T04:15:26.768Z,0.95
2023-10-26T04:16:29.457Z,0.75
2023-10-26T04:17:31.959Z,1.08
2023-10-26T04:18:34.040Z,1.00
2023-10-26T04:19:36.057Z,0.90
2023-10-26T04:20:37.909Z,1.10
2023-10-26T04:21:39.845Z,1.17
2023-10-26T04:22:41.749Z,1.00
2023-10-26T04:23:43.829Z,2.55
2023-10-26T04:24:46.014Z,1.00
2023-10-26T04:25:53.829Z,0.73
2023-10-26T04:26:56.758Z,1.10
2023-10-26T04:29:00.549Z,0.95
2023-10-26T04:30:02.972Z,1.08
2023-10-26T04:32:09.236Z,0.50
2023-10-26T04:33:11.250Z,0.90
2023-10-26T04:34:13.547Z,0.90
2023-10-26T04:35:15.864Z,1.05
2023-10-26T04:36:17.981Z,0.90
2023-10-26T04:37:19.929Z,1.00
2023-10-26T04:38:21.825Z,1.27
2023-10-26T04:39:23.746Z,0.88
2023-10-26T04:40:25.662Z,0.98
2023-10-26T04:41:27.600Z,0.60
2023-10-26T04:42:29.586Z,0.90
2023-10-26T04:43:31.609Z,0.98
2023-10-26T04:44:33.987Z,1.92
2023-10-26T04:46:38.139Z,1.77
2023-10-26T04:47:40.622Z,2.58
2023-10-26T04:48:42.624Z,2.40
2023-10-26T04:49:44.635Z,2.53
2023-10-26T04:50:48.340Z,6.57
2023-10-26T04:51:50.441Z,3.60
2023-10-26T04:52:53.049Z,4.75
2023-10-26T04:53:55.111Z,4.38
2023-10-26T04:54:57.091Z,1.40
2023-10-26T04:55:59.092Z,1.40
2023-10-26T04:57:01.027Z,1.48
2023-10-26T04:58:04.370Z,0.98
2023-10-26T04:59:06.582Z,1.10
2023-10-26T05:00:11.813Z,1.23
2023-10-26T05:01:14.209Z,1.20
2023-10-26T05:03:17.854Z,1.10
2023-10-26T05:04:19.765Z,1.50
2023-10-26T05:05:21.685Z,1.48
2023-10-26T05:06:23.665Z,1.58
2023-10-26T05:07:25.613Z,1.30
2023-10-26T05:08:27.982Z,1.20
2023-10-26T05:10:32.563Z,1.27
2023-10-26T05:11:34.687Z,1.10
2023-10-26T05:12:36.635Z,1.02
2023-10-26T05:13:38.884Z,1.00
2023-10-26T05:14:40.898Z,1.25
2023-10-26T05:15:45.539Z,1.85
2023-10-26T05:16:47.854Z,1.40
2023-10-26T05:18:51.859Z,2.42
2023-10-26T05:19:53.853Z,1.88
2023-10-26T05:20:56.666Z,1.92
2023-10-26T05:21:59.301Z,1.13
2023-10-26T05:23:03.751Z,1.20
2023-10-26T05:24:06.476Z,1.10
2023-10-26T05:25:11.941Z,1.55
2023-10-26T05:26:13.880Z,1.20
2023-10-26T05:27:16.999Z,1.00
2023-10-26T05:28:19.065Z,1.08
2023-10-26T05:29:21.109Z,1.35
2023-10-26T05:30:23.654Z,1.30
2023-10-26T05:31:25.653Z,1.10
2023-10-26T05:32:28.414Z,1.00
2023-10-26T05:33:32.018Z,1.33
2023-10-26T05:34:35.007Z,1.35
2023-10-26T05:35:37.065Z,1.67
2023-10-26T05:36:39.112Z,1.02
2023-10-26T05:37:41.093Z,1.33
2023-10-26T05:38:44.522Z,1.40
2023-10-26T05:39:48.720Z,1.48
2023-10-26T05:40:55.561Z,1.23
2023-10-26T05:41:57.578Z,1.08
2023-10-26T05:42:59.728Z,1.30
2023-10-26T05:44:01.695Z,1.25
2023-10-26T05:45:04.184Z,1.23
2023-10-26T05:46:06.568Z,1.20
2023-10-26T05:48:11.826Z,1.10
2023-10-26T05:49:14.023Z,1.35
2023-10-26T05:50:16.041Z,1.02
2023-10-26T05:51:18.336Z,1.17
2023-10-26T05:53:22.538Z,1.73
2023-10-26T05:54:24.545Z,1.10
2023-10-26T05:55:26.724Z,1.05
2023-10-26T05:56:28.937Z,1.33
2023-10-26T05:57:30.944Z,0.98
2023-10-26T05:58:33.032Z,1.23
2023-10-26T05:59:35.056Z,0.77
2023-10-26T06:00:37.241Z,0.98
2023-10-26T06:01:39.300Z,1.13
2023-10-26T06:02:41.223Z,0.85
2023-10-26T06:03:43.306Z,0.88
2023-10-26T06:04:45.526Z,1.20
2023-10-26T06:05:48.903Z,0.85
2023-10-26T06:06:50.903Z,1.60
2023-10-26T06:07:52.895Z,1.05
2023-10-26T06:08:54.831Z,1.02
2023-10-26T06:09:56.800Z,1.17
2023-10-26T06:10:59.602Z,0.93
2023-10-26T06:12:01.595Z,0.90
2023-10-26T06:13:04.084Z,1.10
2023-10-26T06:14:06.095Z,1.10
2023-10-26T06:15:08.353Z,1.08
2023-10-26T06:16:14.417Z,1.08
2023-10-26T06:17:17.049Z,1.27
2023-10-26T06:18:19.127Z,1.70
2023-10-26T06:19:21.133Z,2.40
2023-10-26T06:20:29.376Z,2.45
2023-10-26T06:21:31.661Z,2.00
2023-10-26T06:22:33.662Z,2.25
2023-10-26T06:23:36.855Z,2.60
2023-10-26T06:24:38.933Z,2.38
2023-10-26T06:25:40.994Z,1.50
2023-10-26T06:26:43.010Z,1.50
2023-10-26T06:27:44.996Z,1.50
2023-10-26T06:28:49.806Z,1.58
2023-10-26T06:29:55.004Z,3.05
2023-10-26T06:31:08.609Z,1.98
2023-10-26T06:32:11.816Z,2.28
2023-10-26T06:33:14.581Z,1.88
2023-10-26T06:34:16.568Z,1.33
2023-10-26T06:35:18.830Z,1.15
2023-10-26T06:36:20.879Z,1.20
2023-10-26T06:37:22.952Z,1.10
2023-10-26T06:38:25.084Z,1.30
2023-10-26T06:39:27.178Z,1.10
2023-10-26T06:40:29.172Z,0.90
2023-10-26T06:41:32.296Z,0.90
2023-10-26T06:42:35.102Z,0.93
2023-10-26T06:43:40.640Z,1.08
2023-10-26T06:44:42.915Z,0.95
2023-10-26T06:45:45.971Z,0.77
2023-10-26T06:46:47.950Z,1.00
2023-10-26T06:47:50.031Z,1.20
2023-10-26T06:48:52.045Z,1.13
2023-10-26T06:49:54.106Z,1.45
2023-10-26T06:51:01.099Z,1.05
2023-10-26T06:52:04.022Z,1.20
2023-10-26T06:53:06.012Z,0.88
2023-10-26T06:54:08.062Z,1.10
2023-10-26T06:55:30.438Z,0.68
2023-10-26T06:56:33.343Z,1.00
2023-10-26T06:57:37.416Z,0.95
2023-10-26T06:58:41.410Z,1.10
2023-10-26T06:59:43.447Z,0.93
2023-10-26T07:00:53.069Z,1.20
2023-10-26T07:02:08.428Z,0.80
2023-10-26T07:03:13.771Z,0.73
2023-10-26T07:04:15.925Z,0.80
2023-10-26T07:05:17.930Z,0.80
2023-10-26T07:06:20.887Z,0.90
2023-10-26T07:07:23.055Z,0.75
2023-10-26T07:08:25.055Z,0.70
2023-10-26T07:09:27.303Z,0.90
2023-10-26T07:10:29.488Z,0.60
2023-10-26T07:11:31.542Z,1.30
2023-10-26T07:12:36.840Z,0.88
2023-10-26T07:13:39.855Z,1.70
2023-10-26T07:14:42.265Z,1.30
2023-10-26T07:15:44.359Z,0.80
2023-10-26T07:16:46.369Z,0.70
2023-10-26T07:17:48.475Z,1.30
2023-10-26T07:18:50.700Z,0.85
2023-10-26T07:19:52.805Z,2.42
2023-10-26T07:20:55.236Z,0.93
2023-10-26T07:22:58.989Z,1.10
2023-10-26T07:24:01.861Z,1.40
2023-10-26T07:25:04.546Z,1.63
2023-10-26T07:26:06.499Z,1.25
2023-10-26T07:27:11.390Z,1.05
2023-10-26T07:28:13.820Z,0.98
2023-10-26T07:30:17.675Z,1.40
2023-10-26T07:31:21.284Z,1.60
2023-10-26T07:32:23.499Z,2.28
2023-10-26T07:33:26.015Z,1.48
2023-10-26T07:34:28.047Z,1.35
2023-10-26T07:35:30.282Z,3.15
2023-10-26T07:36:32.234Z,3.42
2023-10-26T07:37:34.222Z,5.82
2023-10-26T07:38:37.604Z,2.58
2023-10-26T07:39:46.870Z,4.57
2023-10-26T07:40:54.513Z,3.10
2023-10-26T07:42:07.783Z,1.75
2023-10-26T07:43:11.195Z,1.17
2023-10-26T07:44:13.554Z,1.30
2023-10-26T07:46:17.428Z,1.05
2023-10-26T07:47:19.465Z,0.82
2023-10-26T07:48:22.127Z,1.00
2023-10-26T07:49:24.356Z,0.80
2023-10-26T07:50:26.337Z,1.30
2023-10-26T07:51:28.330Z,0.73
2023-10-26T07:52:30.314Z,0.90
2023-10-26T07:53:32.341Z,1.45
2023-10-26T07:54:34.565Z,0.73
2023-10-26T07:56:40.144Z,1.38
2023-10-26T07:57:43.601Z,1.10
2023-10-26T07:58:45.709Z,0.93
2023-10-26T07:59:47.688Z,0.73
2023-10-26T08:00:50.181Z,0.85
2023-10-26T08:02:54.427Z,0.63
2023-10-26T08:03:56.280Z,0.82
2023-10-26T08:04:58.242Z,0.82
2023-10-26T08:06:02.051Z,0.70
2023-10-26T08:07:04.399Z,1.27
2023-10-26T08:09:08.041Z,0.70
2023-10-26T08:10:13.405Z,1.48
2023-10-26T08:11:16.118Z,0.75
2023-10-26T08:12:18.167Z,1.15
2023-10-26T08:13:20.155Z,0.98
2023-10-26T08:14:31.076Z,1.00
2023-10-26T08:16:11.655Z,1.10
2023-10-26T08:17:06.452Z,0.98
2023-10-26T08:18:08.826Z,0.80
2023-10-26T08:20:13.689Z,1.05
2023-10-26T08:21:15.615Z,0.77
2023-10-26T08:22:17.581Z,0.82
2023-10-26T08:24:40.146Z,0.47
2023-10-26T08:25:42.187Z,0.70
2023-10-26T08:26:44.293Z,0.73
2023-10-26T08:27:46.734Z,0.82
2023-10-26T08:29:52.171Z,0.70
2023-10-26T08:30:55.694Z,1.00
2023-10-26T08:31:58.050Z,1.30
2023-10-26T08:33:01.349Z,1.20
2023-10-26T08:34:03.858Z,1.55
2023-10-26T08:36:08.164Z,1.13
2023-10-26T08:38:16.576Z,0.85
2023-10-26T08:39:19.375Z,0.75
2023-10-26T08:40:21.954Z,0.70
2023-10-26T08:41:24.173Z,0.90
2023-10-26T08:42:26.332Z,1.00
2023-10-26T08:43:30.549Z,1.02
2023-10-26T08:44:33.799Z,0.85
2023-10-26T08:45:37.281Z,0.90
2023-10-26T08:46:39.936Z,0.63
2023-10-26T08:47:44.356Z,0.80
2023-10-26T08:48:49.874Z,0.43
2023-10-26T08:50:08.048Z,0.60
2023-10-26T08:51:16.036Z,0.85
2023-10-26T08:52:18.164Z,1.00
2023-10-26T08:53:20.269Z,1.05
2023-10-26T08:54:22.765Z,1.38
2023-10-26T08:55:24.814Z,1.30
2023-10-26T08:56:28.420Z,1.17
2023-10-26T08:57:31.830Z,1.00
2023-10-26T08:58:35.319Z,1.55
2023-10-26T08:59:37.760Z,1.02
2023-10-26T09:01:50.829Z,0.82
2023-10-26T09:02:53.070Z,0.70
2023-10-26T09:03:55.374Z,1.02
2023-10-26T09:05:05.563Z,1.20
2023-10-26T09:06:07.591Z,4.20
2023-10-26T09:07:10.380Z,1.80
2023-10-26T09:08:18.935Z,1.80
2023-10-26T09:09:23.264Z,1.10
2023-10-26T09:10:32.817Z,1.40
2023-10-26T09:11:34.834Z,1.08
2023-10-26T09:12:36.831Z,1.42
2023-10-26T09:13:39.010Z,9.13
2023-10-26T09:14:40.943Z,15.75
2023-10-26T09:15:50.638Z,8.65
2023-10-26T09:16:54.151Z,3.25
2023-10-26T09:18:01.790Z,0.93
2023-10-26T09:19:03.894Z,1.17
2023-10-26T09:20:22.179Z,0.70
2023-10-26T09:21:24.224Z,1.00
2023-10-26T09:22:39.539Z,0.63
2023-10-26T09:23:42.429Z,1.20
2023-10-26T09:24:44.664Z,0.70
2023-10-26T09:25:58.771Z,0.40
2023-10-26T09:27:01.574Z,0.60
2023-10-26T09:28:06.619Z,0.85
2023-10-26T09:29:11.008Z,0.90
2023-10-26T09:30:26.807Z,0.75
2023-10-26T09:31:28.875Z,0.70
2023-10-26T09:32:38.617Z,0.60
2023-10-26T09:33:42.089Z,0.60
2023-10-26T09:34:49.120Z,1.00
2023-10-26T09:35:51.051Z,1.83
2023-10-26T09:37:04.220Z,2.17
2023-10-26T09:38:06.215Z,1.45
2023-10-26T09:39:10.994Z,2.17
2023-10-26T09:40:17.000Z,2.00
2023-10-26T09:41:20.754Z,1.83
2023-10-26T09:42:25.092Z,1.50
2023-10-26T09:43:27.020Z,1.23
2023-10-26T09:44:31.054Z,2.03
2023-10-26T09:45:33.427Z,0.68
2023-10-26T09:47:38.439Z,1.30
2023-10-26T09:48:42.472Z,0.80
2023-10-26T09:49:45.431Z,0.63
2023-10-26T09:50:50.110Z,0.70
2023-10-26T09:51:53.186Z,1.10
2023-10-26T09:52:56.927Z,0.60
2023-10-26T09:54:04.257Z,0.60
2023-10-26T09:55:11.942Z,0.57
2023-10-26T09:56:21.582Z,0.70
2023-10-26T09:57:36.737Z,0.52
2023-10-26T09:58:43.047Z,0.55
2023-10-26T09:59:45.098Z,0.60
2023-10-26T10:00:47.068Z,0.50
2023-10-26T10:01:49.188Z,0.60
2023-10-26T10:03:17.311Z,0.40
2023-10-26T10:04:38.713Z,0.70
2023-10-26T10:05:46.138Z,0.47
2023-10-26T10:06:48.028Z,0.60
2023-10-26T10:07:50.282Z,0.60
2023-10-26T10:09:02.569Z,0.65
2023-10-26T10:10:09.475Z,0.60
2023-10-26T10:11:19.738Z,0.40
2023-10-26T10:12:27.521Z,0.50
2023-10-26T10:13:39.202Z,0.68
2023-10-26T10:14:50.594Z,0.60
2023-10-26T10:15:52.692Z,0.40
2023-10-26T10:16:54.760Z,0.70
2023-10-26T10:17:59.803Z,0.60
2023-10-26T10:19:32.191Z,0.80
2023-10-26T10:20:37.213Z,0.50
2023-10-26T10:21:39.758Z,0.50
2023-10-26T10:22:41.823Z,0.40
2023-10-26T10:23:44.741Z,0.50
2023-10-26T10:24:54.954Z,0.70
2023-10-26T10:26:02.373Z,0.80
2023-10-26T10:27:12.517Z,0.40
2023-10-26T10:28:14.771Z,0.60
2023-10-26T10:29:23.046Z,0.50
2023-10-26T10:30:30.199Z,0.40
2023-10-26T10:31:41.569Z,0.50
2023-10-26T10:32:48.139Z,0.68
2023-10-26T10:34:02.615Z,0.50
2023-10-26T10:35:08.167Z,0.50
2023-10-26T10:36:10.338Z,0.63
2023-10-26T10:37:19.019Z,0.40
2023-10-26T10:38:22.437Z,0.52
2023-10-26T10:39:25.030Z,0.50
2023-10-26T10:40:27.079Z,0.60
2023-10-26T10:41:29.301Z,0.30
2023-10-26T10:42:33.768Z,0.30
2023-10-26T10:43:47.300Z,0.52
2023-10-26T10:44:51.372Z,0.40
2023-10-26T10:45:53.359Z,0.43
2023-10-26T10:46:57.279Z,0.40
2023-10-26T10:47:59.200Z,0.28
2023-10-26T10:49:08.129Z,0.38
2023-10-26T10:50:23.684Z,0.38
2023-10-26T10:51:45.372Z,0.40
2023-10-26T10:52:57.648Z,0.43
2023-10-26T10:54:03.241Z,0.40
2023-10-26T10:55:09.422Z,0.60
2023-10-26T10:56:11.622Z,0.63
2023-10-26T10:57:13.983Z,0.50
2023-10-26T10:58:16.054Z,0.50
2023-10-26T10:59:25.036Z,0.40
2023-10-26T11:00:28.763Z,0.30
2023-10-26T11:01:31.525Z,0.65
2023-10-26T11:02:33.772Z,0.63
2023-10-26T11:03:35.929Z,0.43
2023-10-26T11:05:08.680Z,0.38
2023-10-26T11:06:19.862Z,0.80
2023-10-26T11:07:28.964Z,0.40
2023-10-26T11:08:39.707Z,0.77
2023-10-26T11:09:41.766Z,0.40
2023-10-26T11:10:50.066Z,0.50
2023-10-26T11:11:52.177Z,0.43
2023-10-26T11:12:54.174Z,0.45
2023-10-26T11:14:12.486Z,0.35
2023-10-26T11:15:14.520Z,0.50
2023-10-26T11:16:17.825Z,0.30
2023-10-26T11:17:21.529Z,0.50
2023-10-26T11:18:23.975Z,0.70
2023-10-26T11:19:26.004Z,0.60
2023-10-26T11:20:36.145Z,0.63
2023-10-26T11:21:38.180Z,0.57
2023-10-26T11:22:40.196Z,0.30
2023-10-26T11:23:42.201Z,0.40
2023-10-26T11:24:45.342Z,0.50
2023-10-26T11:25:47.617Z,0.40
2023-10-26T11:27:09.004Z,0.30
2023-10-26T11:28:11.263Z,0.50
2023-10-26T11:30:21.409Z,0.40
2023-10-26T11:31:49.373Z,0.50
2023-10-26T11:32:51.668Z,0.30
2023-10-26T11:35:10.458Z,0.57
2023-10-26T11:36:14.364Z,0.47
2023-10-26T11:37:16.238Z,0.50
2023-10-26T11:38:18.324Z,0.65
2023-10-26T11:39:20.265Z,0.30
2023-10-26T11:40:30.940Z,0.43
2023-10-26T11:41:34.546Z,0.43
2023-10-26T11:42:53.628Z,0.20
2023-10-26T11:43:57.464Z,0.25
2023-10-26T11:44:59.398Z,0.30
2023-10-26T11:46:01.595Z,0.25
2023-10-26T11:48:05.506Z,0.40
2023-10-26T11:49:07.712Z,0.20
2023-10-26T11:50:28.289Z,0.20
2023-10-26T11:51:30.635Z,0.35
2023-10-26T11:53:34.467Z,1.17
2023-10-26T11:54:36.517Z,1.75
2023-10-26T11:55:38.496Z,0.80
2023-10-26T11:56:40.408Z,0.30
2023-10-26T11:57:43.232Z,0.63
2023-10-26T11:58:45.386Z,0.52
2023-10-26T11:59:47.358Z,0.88
2023-10-26T12:00:49.426Z,1.00
2023-10-26T12:01:51.378Z,0.95
2023-10-26T12:03:00.523Z,0.73
2023-10-26T12:04:02.989Z,0.63
2023-10-26T12:05:05.405Z,0.60
2023-10-26T12:07:09.267Z,0.30
2023-10-26T12:08:11.659Z,0.32
2023-10-26T12:10:19.319Z,0.40
2023-10-26T12:11:21.538Z,0.73
2023-10-26T12:12:23.495Z,1.20
2023-10-26T12:13:25.699Z,0.40
2023-10-26T12:14:27.906Z,1.92
2023-10-26T12:15:31.601Z,1.30
2023-10-26T12:16:33.922Z,3.10
2023-10-26T12:17:36.936Z,2.92
2023-10-26T12:18:38.907Z,2.78
2023-10-26T12:19:40.875Z,2.00
2023-10-26T12:20:42.777Z,0.90
2023-10-26T12:21:44.726Z,0.70
2023-10-26T12:22:50.004Z,0.60
2023-10-26T12:23:51.951Z,1.10
2023-10-26T12:24:54.072Z,1.15
2023-10-26T12:25:56.180Z,1.83
2023-10-26T12:26:58.487Z,2.45
2023-10-26T12:29:23.930Z,0.80
2023-10-26T12:30:26.638Z,0.28
2023-10-26T12:31:28.778Z,0.38
2023-10-26T12:32:31.983Z,0.20
2023-10-26T12:33:36.485Z,0.20
2023-10-26T12:34:41.200Z,0.30
2023-10-26T12:35:43.175Z,1.00
2023-10-26T12:36:45.035Z,1.00
2023-10-26T12:37:46.884Z,0.90
2023-10-26T12:38:48.842Z,0.47
2023-10-26T12:39:50.803Z,0.30
2023-10-26T12:40:52.844Z,0.50
2023-10-26T12:41:54.742Z,0.60
2023-10-26T12:42:59.366Z,0.65
2023-10-26T12:44:01.456Z,1.30
2023-10-26T12:45:04.316Z,0.40
2023-10-26T12:46:06.301Z,0.30
2023-10-26T12:47:08.442Z,0.30
2023-10-26T12:48:10.436Z,0.20
2023-10-26T12:49:12.365Z,0.40
2023-10-26T12:50:14.309Z,0.75
2023-10-26T12:51:16.898Z,0.50
2023-10-26T12:52:18.815Z,0.40
2023-10-26T12:53:20.942Z,0.30
2023-10-26T12:54:23.045Z,0.30
2023-10-26T12:55:25.478Z,0.40
2023-10-26T12:57:29.240Z,1.00
2023-10-26T12:58:31.294Z,1.35
2023-10-26T12:59:33.224Z,0.30
2023-10-26T13:00:35.708Z,0.50
2023-10-26T13:01:37.871Z,0.50
2023-10-26T13:02:39.999Z,0.30
2023-10-26T13:03:42.064Z,0.40
2023-10-26T13:04:44.285Z,0.30
2023-10-26T13:05:46.532Z,1.52
2023-10-26T13:06:49.978Z,8.18
2023-10-26T13:07:52.366Z,10.10
2023-10-26T13:09:56.281Z,17.65
2023-10-26T13:10:58.666Z,29.30
2023-10-26T13:12:00.665Z,65.47
2023-10-26T13:13:03.081Z,12.70
2023-10-26T13:14:07.777Z,6.22
2023-10-26T13:15:10.052Z,1.80
2023-10-26T13:16:14.220Z,3.22
2023-10-26T13:17:16.415Z,7.03
2023-10-26T13:18:18.492Z,3.78
2023-10-26T13:19:20.685Z,4.25
2023-10-26T13:20:22.968Z,4.97
2023-10-26T13:21:26.071Z,3.65
2023-10-26T13:22:28.974Z,2.40
2023-10-26T13:23:31.658Z,2.83
2023-10-26T13:24:34.306Z,2.63
2023-10-26T13:25:36.399Z,1.60
2023-10-26T13:26:38.376Z,1.20
2023-10-26T13:27:40.353Z,0.50
2023-10-26T13:28:42.384Z,0.60
2023-10-26T13:29:44.567Z,1.40
2023-10-26T13:31:48.627Z,1.20
2023-10-26T13:32:50.729Z,2.88
2023-10-26T13:33:52.814Z,3.50
2023-10-26T13:34:54.684Z,3.45
2023-10-26T13:35:56.638Z,12.43
2023-10-26T13:37:01.246Z,3.50
2023-10-26T13:38:03.180Z,2.05
2023-10-26T13:39:05.859Z,0.90
2023-10-26T13:40:08.537Z,0.70
2023-10-26T13:41:10.546Z,0.77
2023-10-26T13:42:12.406Z,1.50
2023-10-26T13:43:17.624Z,1.92
2023-10-26T13:44:19.663Z,1.48
2023-10-26T13:45:23.389Z,1.20
2023-10-26T13:46:26.877Z,1.33
2023-10-26T13:47:28.971Z,1.00
2023-10-26T13:48:30.922Z,0.85
2023-10-26T13:49:33.055Z,8.80
2023-10-26T13:50:38.315Z,27.10
2023-10-26T13:51:40.367Z,8.98
2023-10-26T13:52:42.375Z,4.38
2023-10-26T13:53:44.271Z,1.70
2023-10-26T13:54:48.029Z,1.75
2023-10-26T13:55:50.099Z,1.00
2023-10-26T13:56:52.871Z,1.20
2023-10-26T13:57:55.055Z,1.40
2023-10-26T13:58:57.022Z,0.70
2023-10-26T13:59:59.128Z,1.00
2023-10-26T14:01:01.194Z,0.35
2023-10-26T14:02:03.544Z,0.30
2023-10-26T14:03:05.941Z,0.30
2023-10-26T14:05:29.172Z,0.77
2023-10-26T14:06:32.392Z,0.80
2023-10-26T14:07:34.325Z,7.15
2023-10-26T14:08:36.365Z,5.97
2023-10-26T14:09:38.371Z,4.22
2023-10-26T14:10:41.339Z,1.20
2023-10-26T14:11:43.994Z,3.72
2023-10-26T14:12:46.020Z,8.68
2023-10-26T14:13:48.134Z,11.15
2023-10-26T14:14:50.492Z,6.43
2023-10-26T14:16:54.361Z,3.05
2023-10-26T14:17:56.536Z,2.30
2023-10-26T14:19:00.678Z,2.03
2023-10-26T14:20:06.393Z,1.13
2023-10-26T14:21:08.414Z,0.57
2023-10-26T14:22:10.415Z,2.47
2023-10-26T14:23:12.296Z,2.42
2023-10-26T14:24:14.245Z,2.35
2023-10-26T14:25:16.342Z,4.40
2023-10-26T14:26:18.366Z,4.88
2023-10-26T14:27:20.400Z,7.72
2023-10-26T14:28:22.313Z,5.88
2023-10-26T14:29:24.422Z,6.95
2023-10-26T14:30:26.351Z,5.80
2023-10-26T14:31:29.162Z,0.70
2023-10-26T14:32:31.153Z,0.57
2023-10-26T14:33:34.349Z,0.52
2023-10-26T14:34:38.006Z,0.30
2023-10-26T14:35:39.968Z,0.60
2023-10-26T14:36:41.991Z,1.35
2023-10-26T14:37:50.544Z,17.73
2023-10-26T14:38:52.519Z,21.88
2023-10-26T14:39:54.530Z,13.05
2023-10-26T14:41:01.000Z,5.72
2023-10-26T14:42:03.186Z,3.40
2023-10-26T14:43:05.119Z,3.38
2023-10-26T14:44:07.278Z,3.83
2023-10-26T14:45:09.433Z,3.03
2023-10-26T14:46:12.245Z,3.50
2023-10-26T14:47:14.311Z,2.50
2023-10-26T14:48:16.301Z,2.30
2023-10-26T14:49:18.146Z,1.90
2023-10-26T14:50:20.077Z,1.83
2023-10-26T14:51:22.000Z,18.08
2023-10-26T14:52:25.290Z,6.90
2023-10-26T14:53:27.529Z,4.72
2023-10-26T14:54:29.577Z,4.32
2023-10-26T14:55:33.174Z,5.53
2023-10-26T14:56:35.044Z,7.75
2023-10-26T14:57:37.139Z,2.40
2023-10-26T14:58:40.341Z,1.88